Time;durP1;ratioP1;P1;durP2;ratioP2;P2;SDS_P1;SDS_P2;PMS_P1;PMS_P2;Temp;Humidity;BMP_temperature;BMP_pressure;BME280_temperature;BME280_humidity;BME280_pressure;Samples;Min_cycle;Max_cycle;Signal;HPM_P1;HPM_P2
2021/08/18 00:02:24;;;;;;;10.17;9.10;;;;;;;14.50;77.54;100625.59;5064804;28;20237;-82
2021/08/18 00:04:51;;;;;;;10.27;8.70;;;;;;;14.51;77.78;100628.09;5052540;28;20212;-82
2021/08/18 00:07:18;;;;;;;10.03;9.07;;;;;;;14.53;77.48;100631.53;5059636;28;20243;-82
2021/08/18 00:09:45;;;;;;;10.77;9.63;;;;;;;14.55;77.58;100623.38;5052547;28;20210;-81
2021/08/18 00:12:11;;;;;;;10.00;9.00;;;;;;;14.56;77.24;100625.94;5053236;28;20678;-82
2021/08/18 00:14:38;;;;;;;10.00;9.00;;;;;;;14.57;77.35;100626.78;5050582;28;20201;-82
2021/08/18 00:17:05;;;;;;;10.23;9.20;;;;;;;14.58;77.38;100626.66;5054167;28;20233;-82
2021/08/18 00:19:33;;;;;;;10.53;9.43;;;;;;;14.59;77.47;100620.31;5053580;28;20590;-82
2021/08/18 00:21:59;;;;;;;10.93;9.83;;;;;;;14.62;77.55;100626.41;5051610;28;20217;-82
2021/08/18 00:24:26;;;;;;;10.17;9.17;;;;;;;14.63;77.81;100628.13;5062357;28;20205;-81
2021/08/18 00:26:53;;;;;;;10.30;9.37;;;;;;;14.64;77.76;100627.16;5050865;28;20229;-82
2021/08/18 00:29:19;;;;;;;11.30;9.47;;;;;;;14.66;77.83;100627.88;5049205;28;20573;-82
2021/08/18 00:31:46;;;;;;;10.00;9.00;;;;;;;14.68;78.23;100625.94;5052726;28;20871;-82
2021/08/18 00:34:12;;;;;;;10.73;9.63;;;;;;;14.70;77.92;100637.34;5046812;28;20213;-82
2021/08/18 00:36:40;;;;;;;9.47;8.47;;;;;;;14.70;77.95;100623.94;5060075;28;20202;-82
2021/08/18 00:39:07;;;;;;;9.80;8.77;;;;;;;14.69;78.02;100628.47;5062472;28;20207;-81
2021/08/18 00:41:33;;;;;;;10.10;9.10;;;;;;;14.70;78.56;100621.28;5054321;28;20225;-82
2021/08/18 00:44:00;;;;;;;9.93;8.90;;;;;;;14.70;78.26;100621.28;5063651;28;20205;-81
2021/08/18 00:46:27;;;;;;;10.23;9.13;;;;;;;14.70;78.60;100618.59;5061795;28;20217;-81
2021/08/18 00:48:53;;;;;;;9.83;8.83;;;;;;;14.69;78.25;100609.69;5047318;28;20221;-81
2021/08/18 00:51:20;;;;;;;10.73;9.43;;;;;;;14.70;78.67;100618.59;5060899;28;20228;-82
2021/08/18 00:53:48;;;;;;;10.40;9.30;;;;;;;14.69;78.93;100606.19;5047876;28;20632;-81
2021/08/18 00:56:15;;;;;;;12.27;9.77;;;;;;;14.69;78.72;100608.88;5064550;28;20288;-82
2021/08/18 00:58:41;;;;;;;10.43;8.60;;;;;;;14.68;79.27;100607.16;5055096;28;20212;-82
2021/08/18 01:01:08;;;;;;;11.60;10.17;;;;;;;14.67;78.94;100610.81;5058801;28;20228;-81
2021/08/18 01:03:34;;;;;;;10.47;9.37;;;;;;;14.68;79.56;100615.22;5052459;28;20208;-81
2021/08/18 01:06:01;;;;;;;10.53;9.27;;;;;;;14.68;79.30;100607.16;5052554;28;20210;-81
2021/08/18 01:08:27;;;;;;;10.33;9.00;;;;;;;14.66;79.92;100604.59;5060195;28;20694;-82
2021/08/18 01:10:58;;;;;;;10.17;9.13;;;;;;;14.66;79.70;100593.03;5056658;28;20230;-82
2021/08/18 01:13:25;;;;;;;10.27;8.93;;;;;;;14.65;80.35;100602.91;5050295;28;20256;-82
2021/08/18 01:15:51;;;;;;;9.57;8.57;;;;;;;14.65;80.22;100602.06;5053605;28;20212;-82
2021/08/18 01:18:18;;;;;;;10.67;8.67;;;;;;;14.64;80.61;100600.34;5053849;28;20198;-82
2021/08/18 01:20:44;;;;;;;9.90;8.67;;;;;;;14.65;80.49;100599.38;5052594;28;20574;-82
2021/08/18 01:23:13;;;;;;;11.27;8.47;;;;;;;14.65;80.89;100597.53;5060847;28;20213;-82
2021/08/18 01:25:41;;;;;;;11.30;9.50;;;;;;;14.66;80.88;100590.34;5058483;28;20213;-83
2021/08/18 01:28:10;;;;;;;9.87;8.87;;;;;;;14.67;81.04;100592.06;5065148;28;20225;-82
2021/08/18 01:30:40;;;;;;;10.20;9.20;;;;;;;14.67;81.20;100584.88;5060766;28;20225;-83
2021/08/18 01:33:08;;;;;;;10.10;8.30;;;;;;;14.66;80.99;100590.34;5064505;28;20212;-82
2021/08/18 01:35:37;;;;;;;10.37;8.67;;;;;;;14.66;80.93;100588.53;5061031;28;20212;-82
2021/08/18 01:38:06;;;;;;;8.83;7.80;;;;;;;14.65;81.37;100583.28;5065264;28;20225;-82
2021/08/18 01:40:33;;;;;;;8.47;7.67;;;;;;;14.64;81.35;100582.44;5064490;28;20255;-82
2021/08/18 01:43:00;;;;;;;8.30;7.40;;;;;;;14.64;81.24;100574.41;5067211;28;20543;-82
2021/08/18 01:45:28;;;;;;;8.57;7.50;;;;;;;14.63;81.49;100585.25;5055952;28;20209;-82
2021/08/18 01:47:57;;;;;;;9.07;7.10;;;;;;;14.63;81.56;100582.56;5059888;28;20225;-82
2021/08/18 01:50:25;;;;;;;7.73;6.83;;;;;;;14.60;81.51;100575.59;5055704;28;20587;-82
2021/08/18 01:52:53;;;;;;;8.00;6.47;;;;;;;14.59;81.23;100580.13;5055025;28;20205;-82
2021/08/18 01:55:20;;;;;;;9.67;6.60;;;;;;;14.57;81.34;100574.03;5048111;28;20284;-81
2021/08/18 01:57:46;;;;;;;7.53;6.50;;;;;;;14.57;81.27;100584.75;5054267;28;20208;-80
2021/08/18 02:00:15;;;;;;;7.43;6.70;;;;;;;14.56;81.48;100585.72;5048962;28;20210;-81
2021/08/18 02:02:41;;;;;;;9.17;7.80;;;;;;;14.57;81.70;100586.56;5054747;28;20293;-80
2021/08/18 02:05:10;;;;;;;9.37;8.17;;;;;;;14.57;82.08;100589.25;5054762;28;20300;-80
2021/08/18 02:07:37;;;;;;;10.37;7.60;;;;;;;14.58;82.26;100590.97;5054738;28;20236;-80
2021/08/18 02:10:05;;;;;;;8.60;7.70;;;;;;;14.58;82.29;100591.81;5054488;28;20652;-80
2021/08/18 02:12:33;;;;;;;10.00;8.03;;;;;;;14.59;82.27;100593.53;5046978;28;20212;-80
2021/08/18 02:15:00;;;;;;;10.23;7.03;;;;;;;14.60;82.54;100583.66;5047975;28;20208;-80
2021/08/18 02:17:26;;;;;;;10.47;7.83;;;;;;;14.61;83.15;100579.16;5054399;28;20198;-80
2021/08/18 02:19:53;;;;;;;10.30;8.17;;;;;;;14.59;83.29;100577.44;5054100;28;20216;-81
2021/08/18 02:22:20;;;;;;;9.07;7.23;;;;;;;14.61;83.17;100584.50;5051337;28;20252;-81
2021/08/18 02:24:47;;;;;;;8.80;6.90;;;;;;;14.61;83.40;100580.00;5055637;28;20209;-81
2021/08/18 02:27:13;;;;;;;8.53;6.70;;;;;;;14.62;83.31;100586.22;5059493;28;20227;-81
2021/08/18 02:29:40;;;;;;;7.03;6.13;;;;;;;14.61;83.44;100585.34;5061514;28;20213;-81
2021/08/18 02:32:07;;;;;;;8.60;6.87;;;;;;;14.60;83.68;100583.66;5058075;28;20236;-81
2021/08/18 02:34:34;;;;;;;8.50;7.13;;;;;;;14.58;83.62;100581.09;5059889;28;20208;-81
2021/08/18 02:37:00;;;;;;;9.00;6.67;;;;;;;14.58;84.00;100585.59;5066824;28;20209;-81
2021/08/18 02:39:28;;;;;;;7.40;6.63;;;;;;;14.58;83.90;100581.09;5055975;28;20209;-81
2021/08/18 02:41:55;;;;;;;7.00;6.20;;;;;;;14.57;84.23;100578.53;5054888;28;20217;-81
2021/08/18 02:44:21;;;;;;;8.17;7.27;;;;;;;14.57;84.09;100582.06;5055038;28;20237;-81
2021/08/18 02:46:48;;;;;;;9.53;6.80;;;;;;;14.57;84.22;100578.53;5055090;28;20572;-81
2021/08/18 02:49:15;;;;;;;7.20;6.40;;;;;;;14.57;84.37;100575.84;5053775;28;20226;-81
2021/08/18 02:51:42;;;;;;;8.50;6.50;;;;;;;14.58;84.45;100580.25;5053946;28;20235;-81
2021/08/18 02:54:09;;;;;;;8.70;6.60;;;;;;;14.58;84.56;100583.78;5053814;28;20206;-81
2021/08/18 02:56:36;;;;;;;9.23;6.50;;;;;;;14.57;84.82;100582.06;5053691;28;20215;-81
2021/08/18 02:59:03;;;;;;;8.60;6.30;;;;;;;14.58;85.12;100577.56;5053853;28;20556;-81
2021/08/18 03:01:30;;;;;;;7.13;6.07;;;;;;;14.57;84.84;100576.72;5053949;28;20221;-81
2021/08/18 03:03:56;;;;;;;7.77;6.27;;;;;;;14.58;84.77;100570.38;5053534;28;20216;-81
2021/08/18 03:06:23;;;;;;;8.07;7.13;;;;;;;14.57;84.67;100574.03;5053785;28;20205;-81
2021/08/18 03:08:50;;;;;;;8.30;7.40;;;;;;;14.58;85.01;100577.56;5053031;28;20225;-81
2021/08/18 03:11:16;;;;;;;8.10;7.23;;;;;;;14.59;85.09;100581.94;5053435;28;20226;-81
2021/08/18 03:13:44;;;;;;;8.43;6.43;;;;;;;14.59;85.19;100584.63;5053761;28;20209;-81
2021/08/18 03:16:11;;;;;;;10.33;6.80;;;;;;;14.59;85.30;100577.44;5053263;28;20718;-81
2021/08/18 03:18:37;;;;;;;10.43;7.53;;;;;;;14.61;85.58;100568.41;5053579;28;20208;-81
2021/08/18 03:21:04;;;;;;;7.90;6.60;;;;;;;14.60;85.35;100578.28;5041781;28;20230;-81
2021/08/18 03:23:30;;;;;;;9.33;8.00;;;;;;;14.61;85.54;100576.47;5055794;28;20211;-81
2021/08/18 03:25:57;;;;;;;12.00;7.23;;;;;;;14.61;85.79;100574.63;5056291;28;20208;-81
2021/08/18 03:28:24;;;;;;;8.50;7.03;;;;;;;14.61;85.89;100563.91;5056242;28;20229;-81
2021/08/18 03:30:51;;;;;;;8.67;7.77;;;;;;;14.60;85.43;100562.22;5053853;28;20247;-80
2021/08/18 03:33:18;;;;;;;9.83;6.80;;;;;;;14.60;85.73;100556.84;5053965;28;20576;-80
2021/08/18 03:35:45;;;;;;;10.03;6.67;;;;;;;14.61;85.42;100563.06;5047590;28;20217;-80
2021/08/18 03:38:11;;;;;;;8.20;7.00;;;;;;;14.61;85.46;100563.06;5033386;28;20210;-81
2021/08/18 03:40:38;;;;;;;8.03;6.40;;;;;;;14.61;85.72;100557.69;5051458;28;20592;-81
2021/08/18 03:43:05;;;;;;;8.33;6.23;;;;;;;14.61;85.56;100557.69;5053357;28;20304;-81
2021/08/18 03:45:31;;;;;;;10.57;6.73;;;;;;;14.61;85.65;100560.38;5053443;28;20213;-80
2021/08/18 03:47:59;;;;;;;7.97;6.37;;;;;;;14.61;85.89;100553.19;5052732;28;20591;-80
2021/08/18 03:50:26;;;;;;;7.30;6.47;;;;;;;14.60;85.96;100554.16;5055430;28;20222;-80
2021/08/18 03:52:52;;;;;;;9.77;6.07;;;;;;;14.58;86.06;100545.41;5055527;28;20676;-80
2021/08/18 03:55:19;;;;;;;8.97;5.87;;;;;;;14.59;85.63;100539.06;5055424;28;20691;-80
2021/08/18 03:57:45;;;;;;;9.63;6.63;;;;;;;14.58;85.97;100543.56;5054932;28;20214;-80
2021/08/18 04:00:13;;;;;;;10.60;6.80;;;;;;;14.59;86.01;100547.97;5054260;28;20548;-80
2021/08/18 04:02:40;;;;;;;9.13;6.50;;;;;;;14.58;85.80;100546.25;5054566;28;20209;-80
2021/08/18 04:05:10;;;;;;;8.40;6.43;;;;;;;14.59;85.98;100536.38;5056856;28;20213;-80
2021/08/18 04:07:36;;;;;;;7.90;6.67;;;;;;;14.57;85.74;100533.81;5054661;28;20202;-80
2021/08/18 04:10:04;;;;;;;7.40;5.83;;;;;;;14.57;86.06;100538.34;5054098;28;20219;-81
2021/08/18 04:12:31;;;;;;;9.50;7.13;;;;;;;14.56;86.27;100536.63;5054709;28;20741;-80
2021/08/18 04:14:57;;;;;;;8.90;7.23;;;;;;;14.56;86.27;100537.47;5053922;28;20236;-80
2021/08/18 04:17:24;;;;;;;8.83;6.90;;;;;;;14.55;86.03;100535.78;5053938;28;20200;-80
2021/08/18 04:19:50;;;;;;;9.37;7.00;;;;;;;14.55;85.74;100538.47;5055510;28;20717;-80
2021/08/18 04:22:19;;;;;;;9.03;6.77;;;;;;;14.56;85.99;100544.66;5054689;28;20225;-80
2021/08/18 04:24:46;;;;;;;8.20;6.57;;;;;;;14.56;85.68;100545.53;5055607;28;20613;-81
2021/08/18 04:27:12;;;;;;;8.27;6.00;;;;;;;14.56;85.76;100542.84;5055063;28;20277;-81
2021/08/18 04:29:39;;;;;;;7.93;6.67;;;;;;;14.56;85.88;100533.94;5055158;28;20235;-81
2021/08/18 04:32:07;;;;;;;8.03;6.53;;;;;;;14.56;85.88;100540.16;5055444;28;20579;-81
2021/08/18 04:34:33;;;;;;;8.10;6.63;;;;;;;14.57;85.39;100539.19;5055404;28;20261;-81
2021/08/18 04:37:00;;;;;;;7.70;6.40;;;;;;;14.58;85.51;100540.03;5053777;28;20205;-80
2021/08/18 04:39:27;;;;;;;8.87;6.70;;;;;;;14.58;85.23;100548.94;5053856;28;20209;-80
2021/08/18 04:41:54;;;;;;;7.67;6.23;;;;;;;14.59;85.30;100547.97;5053656;28;20289;-80
2021/08/18 04:44:20;;;;;;;8.40;6.53;;;;;;;14.59;85.03;100542.59;5052983;28;20208;-81
2021/08/18 04:46:47;;;;;;;7.37;6.43;;;;;;;14.63;85.02;100550.41;5051956;28;20665;-79
2021/08/18 04:49:14;;;;;;;8.03;6.23;;;;;;;14.64;85.18;100542.22;5052181;28;20225;-79
2021/08/18 04:51:40;;;;;;;8.73;7.13;;;;;;;14.67;84.95;100552.69;5052083;28;20231;-79
2021/08/18 04:54:07;;;;;;;7.13;6.03;;;;;;;14.69;84.99;100547.22;5052475;28;20651;-79
2021/08/18 04:56:34;;;;;;;8.43;6.90;;;;;;;14.72;84.77;100560.34;5051967;28;20215;-79
2021/08/18 04:59:01;;;;;;;7.70;6.90;;;;;;;14.72;84.88;100554.97;5051964;28;20206;-80
2021/08/18 05:01:27;;;;;;;8.97;6.87;;;;;;;14.75;85.12;100552.06;5054251;28;20233;-79
2021/08/18 05:03:54;;;;;;;7.80;6.33;;;;;;;14.78;84.93;100549.13;5055879;28;20209;-79
2021/08/18 05:06:20;;;;;;;8.20;6.77;;;;;;;14.82;84.93;100545.22;5055961;28;20216;-80
2021/08/18 05:08:47;;;;;;;7.67;6.23;;;;;;;14.85;84.67;100550.34;5056820;28;20240;-80
2021/08/18 05:11:13;;;;;;;8.90;6.20;;;;;;;14.87;84.70;100556.41;5056809;28;20233;-80
2021/08/18 05:13:41;;;;;;;8.77;6.70;;;;;;;14.90;84.70;100558.84;5057802;28;20209;-80
2021/08/18 05:16:08;;;;;;;7.87;6.43;;;;;;;14.91;84.79;100552.50;5056955;28;20209;-80
2021/08/18 05:18:34;;;;;;;8.33;6.00;;;;;;;14.94;84.42;100549.56;5057676;28;20214;-80
2021/08/18 05:21:01;;;;;;;6.83;5.80;;;;;;;14.97;84.82;100551.13;5058367;28;20226;-80
2021/08/18 05:23:28;;;;;;;8.17;6.63;;;;;;;14.99;84.67;100558.09;5059118;28;20201;-80
2021/08/18 05:25:55;;;;;;;8.67;5.87;;;;;;;15.03;84.49;100556.00;5059395;28;20555;-80
2021/08/18 05:28:21;;;;;;;8.00;6.60;;;;;;;15.08;84.38;100564.50;5058578;28;20225;-80
2021/08/18 05:30:51;;;;;;;8.30;5.73;;;;;;;15.11;84.56;100575.81;5057065;28;20267;-79
2021/08/18 05:33:20;;;;;;;6.60;5.90;;;;;;;15.15;84.15;100574.59;5055888;28;20217;-79
2021/08/18 05:35:46;;;;;;;7.17;5.77;;;;;;;15.19;83.98;100575.19;5056900;28;20206;-79
2021/08/18 05:38:13;;;;;;;6.70;5.57;;;;;;;15.21;83.94;100565.19;5056752;28;20220;-79
2021/08/18 05:40:39;;;;;;;7.80;6.20;;;;;;;15.21;83.68;100575.94;5062204;28;20603;-79
2021/08/18 05:43:06;;;;;;;6.87;6.13;;;;;;;15.21;83.56;100568.72;5069203;28;20220;-79
2021/08/18 05:45:33;;;;;;;7.30;6.13;;;;;;;15.21;83.51;100575.94;5056050;28;20292;-79
2021/08/18 05:48:00;;;;;;;6.60;5.73;;;;;;;15.21;83.26;100578.59;5054402;28;20726;-78
2021/08/18 05:50:27;;;;;;;5.93;5.33;;;;;;;15.22;82.96;100575.81;5040838;28;20233;-78
2021/08/18 05:52:56;;;;;;;5.87;5.27;;;;;;;15.23;82.69;100587.34;5049811;28;20855;-79
2021/08/18 05:55:23;;;;;;;6.67;5.97;;;;;;;15.24;82.84;100579.19;5055280;28;20208;-78
2021/08/18 05:57:51;;;;;;;6.60;5.80;;;;;;;15.25;82.71;100572.84;5055371;28;20202;-79
2021/08/18 06:00:19;;;;;;;7.17;6.00;;;;;;;15.29;82.59;100565.38;5049101;28;20206;-79
2021/08/18 06:02:46;;;;;;;6.93;6.23;;;;;;;15.37;82.34;100576.34;5054120;28;20210;-79
2021/08/18 06:05:21;;;;;;;7.73;6.30;;;;;;;15.47;82.38;100571.03;5051895;28;20232;-79
2021/08/18 06:07:47;;;;;;;6.00;5.40;;;;;;;15.54;82.16;100575.75;5045631;28;20201;-79
2021/08/18 06:10:14;;;;;;;6.20;5.60;;;;;;;15.58;81.54;100584.44;5049598;28;20718;-79
2021/08/18 06:12:40;;;;;;;6.37;5.63;;;;;;;15.61;81.45;100581.47;5054521;28;20294;-79
2021/08/18 06:15:08;;;;;;;8.13;5.17;;;;;;;15.65;80.93;100580.22;5053265;28;20210;-79
2021/08/18 06:17:34;;;;;;;6.23;5.63;;;;;;;15.70;80.66;100578.00;5060176;28;20211;-79
2021/08/18 06:20:03;;;;;;;5.23;4.73;;;;;;;15.73;80.62;100579.59;5054286;28;20206;-79
2021/08/18 06:22:30;;;;;;;5.40;4.70;;;;;;;15.77;80.20;100578.31;5058404;28;20206;-79
2021/08/18 06:25:03;;;;;;;5.63;5.07;;;;;;;15.81;79.92;100585.13;5051143;28;20210;-79
2021/08/18 06:27:30;;;;;;;5.23;4.73;;;;;;;15.87;79.81;100587.28;5051037;28;20266;-79
2021/08/18 06:29:59;;;;;;;5.60;4.80;;;;;;;15.97;79.86;100585.50;5052289;28;20228;-80
2021/08/18 06:32:26;;;;;;;4.77;4.37;;;;;;;16.05;79.36;100574.97;5064570;28;20337;-80
2021/08/18 06:34:53;;;;;;;5.33;4.83;;;;;;;16.10;78.79;100578.09;5056204;28;20214;-80
2021/08/18 06:37:20;;;;;;;5.83;4.63;;;;;;;16.15;78.06;100570.47;5046862;28;20226;-80
2021/08/18 06:39:48;;;;;;;4.80;4.37;;;;;;;16.24;77.80;100566.97;5056237;28;20306;-80
2021/08/18 06:42:15;;;;;;;4.87;3.87;;;;;;;16.35;77.54;100559.78;5060914;28;20651;-80
2021/08/18 06:44:44;;;;;;;4.43;4.00;;;;;;;16.44;76.91;100559.84;5055659;28;20577;-81
2021/08/18 06:47:11;;;;;;;4.70;3.87;;;;;;;16.57;76.65;100565.81;5051217;28;20574;-81
2021/08/18 06:49:40;;;;;;;5.10;4.13;;;;;;;16.70;75.86;100559.34;5044689;28;20881;-80
2021/08/18 06:52:07;;;;;;;4.70;3.80;;;;;;;16.76;74.89;100566.88;5057343;28;20568;-80
2021/08/18 06:54:34;;;;;;;4.03;3.63;;;;;;;16.83;74.32;100558.13;5058555;28;20302;-80
2021/08/18 06:57:02;;;;;;;4.30;3.63;;;;;;;16.93;74.12;100564.34;5056008;28;20684;-80
2021/08/18 06:59:29;;;;;;;5.53;4.10;;;;;;;16.98;73.48;100563.94;5062151;28;20208;-80
2021/08/18 07:01:56;;;;;;;4.10;3.40;;;;;;;16.99;72.21;100562.97;5058557;28;20737;-80
2021/08/18 07:04:22;;;;;;;4.57;3.70;;;;;;;16.98;71.81;100572.88;5060423;28;20681;-80
2021/08/18 07:06:49;;;;;;;5.23;3.70;;;;;;;16.99;71.79;100569.19;5056347;28;20290;-81
2021/08/18 07:09:15;;;;;;;3.97;3.57;;;;;;;17.00;71.67;100562.81;5071667;28;20237;-81
2021/08/18 07:11:42;;;;;;;3.57;3.20;;;;;;;17.03;71.50;100572.41;5076579;28;20250;-81
2021/08/18 07:14:10;;;;;;;6.00;3.47;;;;;;;17.06;71.38;100571.28;5076466;28;20237;-81
2021/08/18 07:16:37;;;;;;;3.07;2.67;;;;;;;17.07;71.15;100573.84;5057357;28;20264;-81
2021/08/18 07:19:04;;;;;;;5.50;3.53;;;;;;;17.10;71.08;100565.50;5056623;28;20269;-81
2021/08/18 07:21:31;;;;;;;3.87;3.17;;;;;;;17.11;70.74;100561.81;5056828;28;20228;-80
2021/08/18 07:23:57;;;;;;;4.63;3.30;;;;;;;17.12;70.52;100566.22;5056043;28;20226;-81
2021/08/18 07:26:26;;;;;;;4.60;3.67;;;;;;;17.13;70.37;100557.16;5055399;28;20227;-81
2021/08/18 07:28:56;;;;;;;3.97;3.27;;;;;;;17.18;70.04;100568.34;5055797;28;20225;-80
2021/08/18 07:31:25;;;;;;;5.73;3.30;;;;;;;17.31;70.12;100549.22;5055996;28;20593;-80
2021/08/18 07:33:51;;;;;;;4.83;3.40;;;;;;;17.47;70.19;100559.41;5055492;28;20208;-82
2021/08/18 07:36:18;;;;;;;3.33;2.83;;;;;;;17.65;69.76;100561.25;5056301;28;20215;-82
2021/08/18 07:38:45;;;;;;;3.23;2.90;;;;;;;17.85;69.40;100563.91;5062262;28;20208;-81
2021/08/18 07:41:12;;;;;;;3.83;2.87;;;;;;;18.02;69.00;100561.28;5075007;28;20249;-81
2021/08/18 07:43:41;;;;;;;3.27;2.70;;;;;;;18.22;68.34;100564.75;5076067;28;20565;-81
2021/08/18 07:46:08;;;;;;;4.27;2.87;;;;;;;18.41;67.40;100562.97;5075071;28;20235;-81
2021/08/18 07:48:36;;;;;;;4.70;2.60;;;;;;;18.57;66.23;100561.31;5063366;28;20677;-81
2021/08/18 07:51:02;;;;;;;2.57;2.30;;;;;;;18.68;65.54;100557.59;5069530;28;20307;-81
2021/08/18 07:53:29;;;;;;;3.33;2.23;;;;;;;18.82;65.51;100548.97;5050670;28;20580;-82
2021/08/18 07:55:58;;;;;;;4.83;2.70;;;;;;;19.02;64.57;100547.00;5057236;28;20235;-82
2021/08/18 07:58:25;;;;;;;2.37;2.17;;;;;;;19.19;63.98;100556.09;5051728;28;20217;-80
2021/08/18 08:00:51;;;;;;;4.30;2.53;;;;;;;19.31;61.97;100550.31;5057362;28;20548;-80
2021/08/18 08:03:18;;;;;;;3.07;2.20;;;;;;;19.36;61.97;100566.88;5055719;28;20218;-80
2021/08/18 08:05:50;;;;;;;2.67;2.40;;;;;;;19.38;61.76;100572.97;5060889;28;20249;-80
2021/08/18 08:08:16;;;;;;;3.93;2.60;;;;;;;19.34;61.06;100566.22;5059786;28;20203;-81
2021/08/18 08:10:43;;;;;;;2.27;1.90;;;;;;;19.33;60.95;100575.31;5048400;28;20260;-81
2021/08/18 08:13:12;;;;;;;2.93;2.30;;;;;;;19.30;60.86;100575.63;5042248;28;20217;-82
2021/08/18 08:15:39;;;;;;;3.57;2.00;;;;;;;19.25;60.94;100577.94;5059603;28;20207;-82
2021/08/18 08:18:05;;;;;;;3.87;2.13;;;;;;;19.20;60.99;100580.22;5055537;28;20215;-82
2021/08/18 08:20:32;;;;;;;4.17;2.37;;;;;;;19.15;60.89;100569.06;5047524;28;20314;-82
2021/08/18 08:23:02;;;;;;;7.87;2.63;;;;;;;19.10;60.77;100575.94;5040010;28;20575;-81
2021/08/18 08:25:29;;;;;;;2.57;2.00;;;;;;;19.02;60.73;100577.53;5053282;28;20204;-81
2021/08/18 08:27:56;;;;;;;5.33;2.50;;;;;;;18.97;61.07;100581.72;5055286;28;20210;-81
2021/08/18 08:30:24;;;;;;;2.67;2.27;;;;;;;18.94;61.02;100572.06;5042167;28;20232;-82
2021/08/18 08:32:50;;;;;;;2.67;2.23;;;;;;;18.93;61.12;100580.31;5053179;28;20287;-82
2021/08/18 08:35:17;;;;;;;4.00;2.10;;;;;;;18.93;61.27;100588.41;5035940;28;20301;-82
2021/08/18 08:37:44;;;;;;;2.43;2.00;;;;;;;18.92;61.10;100576.75;5046406;28;20210;-82
2021/08/18 08:40:17;;;;;;;2.73;2.00;;;;;;;18.93;60.86;100577.59;5041405;28;20205;-81
2021/08/18 08:42:44;;;;;;;2.80;1.87;;;;;;;18.94;60.82;100582.00;5042512;28;20607;-82
2021/08/18 08:45:12;;;;;;;2.63;2.00;;;;;;;18.96;60.77;100582.72;5038427;28;20210;-83
2021/08/18 08:47:40;;;;;;;3.47;1.70;;;;;;;18.96;60.68;100583.56;5040193;28;20213;-83
2021/08/18 08:50:11;;;;;;;3.07;1.80;;;;;;;19.00;60.48;100575.97;5041192;28;20223;-82
2021/08/18 08:52:38;;;;;;;3.70;2.07;;;;;;;19.01;60.45;100581.22;5042509;28;20579;-82
2021/08/18 08:55:06;;;;;;;2.60;2.07;;;;;;;19.06;60.82;100584.31;5044582;28;20213;-81
2021/08/18 08:57:45;;;;;;;2.90;1.87;;;;;;;19.10;60.77;100584.88;5039169;28;20215;-82
2021/08/18 09:00:12;;;;;;;2.77;2.10;;;;;;;19.10;60.73;100579.47;5038360;28;20199;-82
2021/08/18 09:02:39;;;;;;;2.43;2.20;;;;;;;19.08;60.51;100585.03;5044532;28;20208;-82
2021/08/18 09:05:05;;;;;;;2.83;1.77;;;;;;;19.09;60.70;100580.47;5040500;28;20220;-82
2021/08/18 09:07:32;;;;;;;1.70;1.50;;;;;;;19.14;60.56;100582.72;5039386;28;20209;-82
2021/08/18 09:10:00;;;;;;;2.10;1.73;;;;;;;19.20;60.45;100596.44;5044662;28;20329;-83
2021/08/18 09:12:29;;;;;;;3.03;1.70;;;;;;;19.25;60.62;100582.47;5038401;28;20287;-82
2021/08/18 09:14:58;;;;;;;2.43;2.03;;;;;;;19.31;60.64;100593.53;5041711;28;20629;-82
2021/08/18 09:17:29;;;;;;;3.97;1.80;;;;;;;19.37;60.58;100592.03;5040339;28;20203;-82
2021/08/18 09:20:09;;;;;;;2.10;1.77;;;;;;;19.40;59.72;100591.72;5041328;28;20286;-80
2021/08/18 09:22:39;;;;;;;2.97;2.00;;;;;;;19.40;59.56;100592.56;5044166;28;20215;-81
2021/08/18 09:25:17;;;;;;;4.13;1.73;;;;;;;19.41;59.18;100593.44;5057943;28;20594;-81
2021/08/18 09:27:45;;;;;;;1.60;1.50;;;;;;;19.39;59.49;100595.44;5052098;28;20678;-82
2021/08/18 09:30:26;;;;;;;2.07;1.60;;;;;;;19.39;59.75;100585.47;5047491;28;20235;-82
2021/08/18 09:32:53;;;;;;;2.60;1.43;;;;;;;19.40;59.87;100592.56;5051815;28;20958;-80
2021/08/18 09:35:22;;;;;;;3.50;2.30;;;;;;;19.42;60.02;100589.72;5053441;28;20205;-82
2021/08/18 09:38:00;;;;;;;2.10;1.90;;;;;;;19.40;59.86;100589.88;5045155;28;20207;-81
2021/08/18 09:40:29;;;;;;;3.97;2.10;;;;;;;19.40;59.86;100597.97;5048733;28;20232;-81
2021/08/18 09:43:08;;;;;;;3.17;2.20;;;;;;;19.37;59.87;100594.72;5047431;28;20243;-82
2021/08/18 09:45:39;;;;;;;4.30;2.10;;;;;;;19.39;59.86;100598.13;5050418;28;20212;-81
2021/08/18 09:48:08;;;;;;;3.27;2.13;;;;;;;19.39;59.54;100587.31;5047038;28;20693;-82
2021/08/18 09:50:50;;;;;;;2.83;1.77;;;;;;;19.43;59.88;100591.41;5054944;28;20236;-82
2021/08/18 09:53:19;;;;;;;2.23;1.90;;;;;;;19.48;59.73;100582.84;5054085;28;20198;-82
2021/08/18 09:55:54;;;;;;;3.10;2.33;;;;;;;19.52;59.49;100586.97;5051529;28;20208;-82
2021/08/18 09:58:25;;;;;;;1.77;1.63;;;;;;;19.55;59.19;100590.19;5054512;28;20208;-82
2021/08/18 10:00:56;;;;;;;2.97;1.90;;;;;;;19.59;58.93;100594.28;5046946;28;20228;-81
2021/08/18 10:03:22;;;;;;;2.37;1.70;;;;;;;19.58;58.42;100595.28;5056736;28;20664;-81
2021/08/18 10:05:50;;;;;;;2.73;2.03;;;;;;;19.60;58.45;100589.72;5048222;28;20573;-82
2021/08/18 10:08:18;;;;;;;1.93;1.50;;;;;;;19.61;58.44;100594.97;5053767;28;20297;-82
2021/08/18 10:10:46;;;;;;;2.33;1.70;;;;;;;19.61;58.19;100594.97;5055392;28;20231;-81
2021/08/18 10:13:13;;;;;;;5.97;1.80;;;;;;;19.61;58.20;100599.53;5052263;28;20206;-82
2021/08/18 10:15:40;;;;;;;3.13;1.57;;;;;;;19.61;58.23;100599.53;5049152;28;20217;-81
2021/08/18 10:18:09;;;;;;;2.27;1.60;;;;;;;19.57;58.16;100599.00;5047348;28;20575;-81
2021/08/18 10:20:38;;;;;;;1.93;1.40;;;;;;;19.53;58.30;100604.84;5045761;28;20225;-81
2021/08/18 10:23:06;;;;;;;1.73;1.63;;;;;;;19.51;58.72;100605.03;5054344;28;20198;-81
2021/08/18 10:25:45;;;;;;;2.33;1.70;;;;;;;19.49;58.76;100600.75;5050400;28;20654;-81
2021/08/18 10:28:13;;;;;;;1.90;1.53;;;;;;;19.47;58.60;100608.16;5052407;28;20204;-81
2021/08/18 10:30:53;;;;;;;2.80;1.83;;;;;;;19.44;59.09;100595.81;5053395;28;20230;-80
2021/08/18 10:33:57;;;;;;;2.00;1.53;;;;;;;19.47;59.63;100600.06;5062540;28;20218;-82
2021/08/18 10:37:03;;;;;;;4.00;1.53;;;;;;;19.50;59.98;100599.78;5053224;28;20230;-83
2021/08/18 10:39:36;;;;;;;3.43;1.80;;;;;;;19.49;59.28;100596.22;5049236;28;20291;-83
2021/08/18 10:42:04;;;;;;;1.97;1.67;;;;;;;19.52;59.30;100589.69;5049419;28;20229;-83
2021/08/18 10:44:42;;;;;;;3.17;1.70;;;;;;;19.58;59.35;100583.63;5056647;28;20214;-82
2021/08/18 10:47:17;;;;;;;1.83;1.37;;;;;;;19.66;59.14;100583.72;5056669;28;20654;-82
2021/08/18 10:49:44;;;;;;;2.00;1.57;;;;;;;19.72;58.71;100589.31;5045185;28;20203;-82
2021/08/18 10:52:12;;;;;;;1.33;0.90;;;;;;;19.81;58.87;100584.00;5048606;28;20720;-82
2021/08/18 10:54:43;;;;;;;2.37;1.13;;;;;;;19.86;58.77;100587.06;5044133;28;20213;-82
2021/08/18 10:57:39;;;;;;;1.80;1.20;;;;;;;19.88;58.14;100585.06;5049193;28;20201;-84
2021/08/18 11:00:24;;;;;;;1.30;1.17;;;;;;;19.88;58.04;100591.31;5044345;28;20211;-82
2021/08/18 11:03:02;;;;;;;1.97;1.20;;;;;;;19.85;58.41;100588.94;5046222;28;20681;-83
2021/08/18 11:05:42;;;;;;;1.40;1.10;;;;;;;19.87;58.16;100589.63;5051178;28;20210;-83
2021/08/18 11:08:12;;;;;;;1.40;1.00;;;;;;;19.91;58.09;100590.13;5041606;28;20214;-84
2021/08/18 11:10:42;;;;;;;2.07;1.00;;;;;;;19.97;58.34;100590.34;5049348;28;20226;-83
2021/08/18 11:13:10;;;;;;;1.87;1.10;;;;;;;20.04;58.04;100591.41;5044605;28;20205;-83
2021/08/18 11:15:55;;;;;;;1.37;1.10;;;;;;;20.11;57.89;100589.75;5048269;28;20236;-83
2021/08/18 11:18:23;;;;;;;2.10;0.80;;;;;;;20.17;57.61;100595.53;5049266;28;20229;-85
2021/08/18 11:20:55;;;;;;;1.70;1.00;;;;;;;20.21;57.07;100605.03;5047078;28;20835;-84
2021/08/18 11:23:28;;;;;;;1.37;0.80;;;;;;;20.22;56.77;100601.31;5044063;28;20214;-82
2021/08/18 11:26:06;;;;;;;1.20;1.10;;;;;;;20.22;56.96;100593.22;5050385;28;20197;-82
2021/08/18 11:28:36;;;;;;;1.30;0.90;;;;;;;20.27;57.08;100601.66;5049844;28;20204;-82
2021/08/18 11:31:11;;;;;;;1.37;1.00;;;;;;;20.31;57.10;100597.63;5051675;28;20310;-82